createdAt,value
2018-05-04T00:00:06.679Z,8.97
2018-05-04T00:02:34.943Z,8.80
2018-05-04T00:05:07.944Z,8.83
2018-05-04T00:07:36.222Z,8.69
2018-05-04T00:10:09.090Z,8.76
2018-05-04T00:12:37.480Z,8.84
2018-05-04T00:15:06.888Z,8.79
2018-05-04T00:17:35.166Z,8.75
2018-05-04T00:20:06.451Z,8.78
2018-05-04T00:22:34.712Z,8.74
2018-05-04T00:25:08.799Z,8.65
2018-05-04T00:27:37.059Z,8.62
2018-05-04T00:30:06.779Z,8.65
2018-05-04T00:32:35.050Z,8.57
2018-05-04T00:35:07.335Z,8.37
2018-05-04T00:37:35.631Z,8.40
2018-05-04T00:40:07.458Z,8.12
2018-05-04T00:42:35.734Z,8.33
2018-05-04T00:45:06.427Z,8.39
2018-05-04T00:47:34.743Z,8.45
2018-05-04T00:50:09.000Z,8.29
2018-05-04T00:52:37.251Z,8.25
2018-05-04T00:55:06.815Z,8.09
2018-05-04T00:57:35.574Z,8.13
2018-05-04T01:00:07.595Z,8.23
2018-05-04T01:02:35.864Z,8.21
2018-05-04T01:05:07.055Z,8.24
2018-05-04T01:07:35.302Z,8.26
2018-05-04T01:10:06.726Z,8.23
2018-05-04T01:12:34.987Z,8.27
2018-05-04T01:15:06.306Z,8.09
2018-05-04T01:17:34.559Z,8.08
2018-05-04T01:20:09.466Z,8.01
2018-05-04T01:22:37.727Z,8.02
2018-05-04T01:25:06.019Z,8.16
2018-05-04T01:27:34.292Z,8.14
2018-05-04T01:30:06.164Z,8.18
2018-05-04T01:32:34.716Z,8.14
2018-05-04T01:35:05.503Z,8.14
2018-05-04T01:37:33.788Z,8.12
2018-05-04T01:40:07.582Z,8.11
2018-05-04T01:42:35.867Z,8.07
2018-05-04T01:45:05.848Z,8.06
2018-05-04T01:47:34.123Z,8.10
2018-05-04T01:50:05.509Z,8.11
2018-05-04T01:52:33.787Z,8.04
2018-05-04T01:55:07.963Z,7.99
2018-05-04T01:57:36.459Z,7.96
2018-05-04T02:00:06.048Z,8.01
2018-05-04T02:02:34.324Z,7.94
2018-05-04T02:05:06.411Z,7.99
2018-05-04T02:07:34.696Z,7.96
2018-05-04T02:10:06.830Z,7.83
2018-05-04T02:12:35.207Z,7.93
2018-05-04T02:15:07.364Z,7.73
2018-05-04T02:17:35.660Z,7.70
2018-05-04T02:20:05.718Z,7.67
2018-05-04T02:22:34.014Z,7.70
2018-05-04T02:25:05.683Z,7.62
2018-05-04T02:27:34.013Z,7.61
2018-05-04T02:30:09.135Z,7.63
2018-05-04T02:32:37.431Z,7.41
2018-05-04T02:35:05.769Z,7.17
2018-05-04T02:37:34.161Z,7.34
2018-05-04T02:40:05.638Z,7.40
2018-05-04T02:42:33.911Z,7.48
2018-05-04T02:45:05.599Z,7.37
2018-05-04T02:47:33.901Z,7.49
2018-05-04T02:50:09.111Z,7.37
2018-05-04T02:52:37.643Z,7.30
2018-05-04T02:55:05.903Z,7.17
2018-05-04T02:57:34.187Z,7.14
2018-05-04T03:00:05.938Z,7.18
2018-05-04T03:02:34.532Z,7.02
2018-05-04T03:05:06.696Z,7.30
2018-05-04T03:07:34.966Z,7.12
2018-05-04T03:10:07.035Z,7.12
2018-05-04T03:12:35.288Z,7.04
2018-05-04T03:15:07.279Z,6.98
2018-05-04T03:17:35.553Z,7.06
2018-05-04T03:20:05.647Z,7.01
2018-05-04T03:22:34.043Z,6.98
2018-05-04T03:25:05.642Z,7.00
2018-05-04T03:27:33.943Z,6.96
2018-05-04T03:30:09.191Z,6.93
2018-05-04T03:32:37.508Z,6.91
2018-05-04T03:35:05.769Z,6.99
2018-05-04T03:37:34.024Z,6.88
2018-05-04T03:40:06.947Z,6.83
2018-05-04T03:42:35.207Z,6.76
2018-05-04T03:45:05.900Z,6.70
2018-05-04T03:47:34.160Z,6.64
2018-05-04T03:50:09.242Z,6.49
2018-05-04T03:52:37.490Z,6.41
2018-05-04T03:55:05.742Z,6.55
2018-05-04T03:57:45.841Z,6.65
2018-05-04T04:00:25.889Z,6.51
2018-05-04T04:03:06.164Z,6.69
2018-05-04T04:05:34.458Z,6.48
2018-05-04T04:08:03.232Z,6.43
2018-05-04T04:10:31.495Z,6.54
2018-05-04T04:12:59.775Z,6.51
2018-05-04T04:15:28.157Z,6.56
2018-05-04T04:17:56.472Z,6.56
2018-05-04T04:20:24.699Z,6.47
2018-05-04T04:22:53.080Z,6.51
2018-05-04T04:25:21.483Z,6.64
2018-05-04T04:27:49.768Z,6.53
2018-05-04T04:30:18.021Z,6.63
2018-05-04T04:32:46.383Z,6.65
2018-05-04T04:35:14.671Z,6.61
2018-05-04T04:37:42.953Z,6.51
2018-05-04T04:40:11.228Z,6.41
2018-05-04T04:42:39.515Z,6.58
2018-05-04T04:45:07.775Z,6.62
2018-05-04T04:47:36.064Z,6.72
2018-05-04T04:50:05.953Z,6.76
2018-05-04T04:52:34.207Z,6.78
2018-05-04T04:55:05.822Z,6.87
2018-05-04T04:57:34.078Z,6.90
2018-05-04T05:00:09.224Z,6.90
2018-05-04T05:02:37.470Z,7.12
2018-05-04T05:05:05.756Z,7.18
2018-05-04T05:07:34.011Z,7.30
2018-05-04T05:10:05.452Z,7.42
2018-05-04T05:12:33.744Z,7.35
2018-05-04T05:15:05.347Z,7.33
2018-05-04T05:17:33.891Z,7.29
2018-05-04T05:20:05.544Z,7.27
2018-05-04T05:22:33.812Z,7.46
2018-05-04T05:25:05.436Z,7.50
2018-05-04T05:27:33.691Z,7.50
2018-05-04T05:30:05.170Z,7.82
2018-05-04T05:32:33.453Z,8.01
2018-05-04T05:35:08.078Z,7.93
2018-05-04T05:37:36.370Z,8.16
2018-05-04T05:40:07.217Z,8.04
2018-05-04T05:42:35.508Z,8.25
2018-05-04T05:45:06.925Z,8.32
2018-05-04T05:47:35.310Z,8.22
2018-05-04T05:50:06.531Z,8.36
2018-05-04T05:52:34.943Z,8.38
2018-05-04T05:55:05.799Z,8.65
2018-05-04T05:57:34.086Z,8.65
2018-05-04T06:00:07.310Z,8.86
2018-05-04T06:02:35.608Z,8.93
2018-05-04T06:05:05.966Z,9.00
2018-05-04T06:07:34.234Z,9.06
2018-05-04T06:10:05.880Z,8.70
2018-05-04T06:12:34.202Z,9.11
2018-05-04T06:15:08.573Z,9.07
2018-05-04T06:17:36.832Z,9.22
2018-05-04T06:20:06.454Z,9.11
2018-05-04T06:22:34.741Z,9.40
2018-05-04T06:25:06.888Z,9.71
2018-05-04T06:27:35.111Z,9.71
2018-05-04T06:30:06.217Z,9.87
2018-05-04T06:32:35.086Z,10.00
2018-05-04T06:35:06.892Z,10.07
2018-05-04T06:37:35.178Z,10.17
2018-05-04T06:40:07.220Z,10.27
2018-05-04T06:42:35.521Z,10.06
2018-05-04T06:45:07.627Z,10.12
2018-05-04T06:47:35.934Z,10.24
2018-05-04T06:50:09.210Z,10.32
2018-05-04T06:52:37.727Z,10.38
2018-05-04T06:55:06.024Z,10.35
2018-05-04T06:57:34.306Z,10.29
2018-05-04T07:00:09.343Z,10.71
2018-05-04T07:02:37.616Z,10.80
2018-05-04T07:05:06.609Z,10.65
2018-05-04T07:07:34.974Z,10.52
2018-05-04T07:10:07.112Z,10.64
2018-05-04T07:12:35.388Z,10.76
2018-05-04T07:15:07.534Z,10.79
2018-05-04T07:17:35.932Z,10.91
2018-05-04T07:20:06.007Z,11.35
2018-05-04T07:22:34.487Z,11.42
2018-05-04T07:25:05.879Z,11.56
2018-05-04T07:27:34.174Z,12.54
2018-05-04T07:30:05.707Z,14.04
2018-05-04T07:32:34.007Z,14.49
2018-05-04T07:35:05.541Z,14.62
2018-05-04T07:37:33.827Z,14.68
2018-05-04T07:40:08.709Z,15.24
2018-05-04T07:42:36.994Z,15.43
2018-05-04T07:45:06.413Z,15.16
2018-05-04T07:47:34.879Z,14.77
2018-05-04T07:50:06.769Z,14.53
2018-05-04T07:52:35.055Z,14.37
2018-05-04T07:55:06.146Z,15.02
2018-05-04T07:57:34.647Z,15.19
2018-05-04T08:00:06.736Z,15.67
2018-05-04T08:02:35.031Z,15.99
2018-05-04T08:05:06.223Z,16.83
2018-05-04T08:07:34.517Z,16.19
2018-05-04T08:10:06.409Z,16.45
2018-05-04T08:12:34.734Z,15.89
2018-05-04T08:15:06.742Z,14.81
2018-05-04T08:17:35.199Z,14.76
2018-05-04T08:20:07.610Z,15.10
2018-05-04T08:22:35.928Z,15.17
2018-05-04T08:25:07.103Z,16.07
2018-05-04T08:27:35.407Z,16.09
2018-05-04T08:30:07.527Z,16.24
2018-05-04T08:32:35.834Z,16.59
2018-05-04T08:35:05.978Z,17.59
2018-05-04T08:37:34.204Z,18.33
2018-05-04T08:40:06.262Z,18.75
2018-05-04T08:42:34.526Z,19.24
2018-05-04T08:45:08.620Z,19.52
2018-05-04T08:47:36.883Z,18.82
2018-05-04T08:50:06.120Z,19.47
2018-05-04T08:52:34.383Z,19.62
2018-05-04T08:55:09.418Z,20.46
2018-05-04T08:57:37.677Z,19.47
2018-05-04T09:00:05.968Z,18.28
2018-05-04T09:02:34.391Z,16.69
2018-05-04T09:05:06.221Z,17.01
2018-05-04T09:07:34.411Z,17.18
2018-05-04T09:10:06.194Z,17.04
2018-05-04T09:12:34.526Z,17.66
2018-05-04T09:15:07.550Z,17.77
2018-05-04T09:17:35.829Z,16.98
2018-05-04T09:20:07.949Z,17.16
2018-05-04T09:22:36.231Z,17.02
2018-05-04T09:25:06.363Z,17.43
2018-05-04T09:27:34.628Z,17.66
2018-05-04T09:30:06.068Z,17.41
2018-05-04T09:32:34.332Z,16.79
2018-05-04T09:35:07.731Z,16.72
2018-05-04T09:37:36.051Z,17.38
2018-05-04T09:40:05.967Z,17.74
2018-05-04T09:42:34.721Z,18.08
2018-05-04T09:45:06.688Z,17.80
2018-05-04T09:47:34.979Z,18.14
2018-05-04T09:50:06.195Z,18.09
2018-05-04T09:52:34.552Z,18.12
2018-05-04T09:55:06.971Z,18.02
2018-05-04T09:57:35.275Z,18.91
2018-05-04T10:00:07.273Z,19.10
2018-05-04T10:02:35.567Z,18.58
2018-05-04T10:05:07.145Z,18.42
2018-05-04T10:07:35.628Z,18.73
2018-05-04T10:10:07.244Z,18.98
2018-05-04T10:12:35.536Z,19.41
2018-05-04T10:15:07.619Z,20.64
2018-05-04T10:17:35.920Z,20.49
2018-05-04T10:20:07.544Z,21.35
2018-05-04T10:22:35.839Z,22.04
2018-05-04T10:25:07.751Z,22.85
2018-05-04T10:27:36.429Z,24.94
2018-05-04T10:30:06.547Z,23.54
2018-05-04T10:32:34.868Z,23.94
2018-05-04T10:35:06.425Z,25.48
2018-05-04T10:37:34.643Z,25.90
2018-05-04T10:40:08.706Z,25.42
2018-05-04T10:42:36.974Z,25.41
2018-05-04T10:45:06.439Z,24.89
2018-05-04T10:47:34.623Z,24.65
2018-05-04T10:50:09.638Z,22.89
2018-05-04T10:52:38.066Z,23.50
2018-05-04T10:55:06.361Z,22.79
2018-05-04T10:57:34.667Z,23.22
2018-05-04T11:00:06.371Z,22.70
2018-05-04T11:02:34.627Z,21.61
2018-05-04T11:05:08.705Z,22.50
2018-05-04T11:07:36.998Z,22.39
2018-05-04T11:10:06.743Z,21.94
2018-05-04T11:12:35.033Z,21.85
2018-05-04T11:15:06.256Z,21.75
2018-05-04T11:17:34.639Z,21.44
2018-05-04T11:20:09.784Z,21.61
2018-05-04T11:22:38.052Z,21.48
2018-05-04T11:25:06.345Z,21.02
2018-05-04T11:27:34.602Z,21.68
2018-05-04T11:30:05.983Z,21.69
2018-05-04T11:32:34.323Z,21.37
2018-05-04T11:35:07.686Z,21.65
2018-05-04T11:37:35.981Z,21.71
2018-05-04T11:40:08.087Z,21.80
2018-05-04T11:42:36.426Z,21.76
2018-05-04T11:45:06.338Z,22.05
2018-05-04T11:47:34.721Z,22.41
2018-05-04T11:50:06.762Z,22.36
2018-05-04T11:52:35.079Z,22.15
2018-05-04T11:55:06.365Z,21.83
2018-05-04T11:57:34.583Z,22.08
2018-05-04T12:00:05.935Z,22.25
2018-05-04T12:02:34.241Z,22.11
2018-05-04T12:05:09.108Z,22.32
2018-05-04T12:07:37.399Z,22.32
2018-05-04T12:10:07.103Z,22.31
2018-05-04T12:12:35.376Z,22.38
2018-05-04T12:15:07.413Z,22.08
2018-05-04T12:17:35.794Z,22.18
2018-05-04T12:20:08.023Z,22.37
2018-05-04T12:22:36.274Z,22.33
2018-05-04T12:25:06.146Z,22.17
2018-05-04T12:27:34.606Z,22.53
2018-05-04T12:30:06.119Z,22.36
2018-05-04T12:32:34.548Z,22.68
2018-05-04T12:35:09.631Z,22.65
2018-05-04T12:37:37.898Z,22.80
2018-05-04T12:40:06.204Z,22.36
2018-05-04T12:42:35.047Z,22.42
2018-05-04T12:45:06.863Z,22.44
2018-05-04T12:47:35.132Z,22.34
2018-05-04T12:50:07.510Z,22.40
2018-05-04T12:52:35.793Z,22.32
2018-05-04T12:55:07.859Z,22.74
2018-05-04T12:57:36.128Z,22.83
2018-05-04T13:00:07.916Z,22.87
2018-05-04T13:02:36.179Z,23.10
2018-05-04T13:05:07.915Z,22.77
2018-05-04T13:07:36.192Z,22.99
2018-05-04T13:10:08.051Z,23.10
2018-05-04T13:12:36.484Z,22.69
2018-05-04T13:15:06.515Z,22.46
2018-05-04T13:17:34.948Z,22.85
2018-05-04T13:20:06.977Z,22.65
2018-05-04T13:22:35.252Z,23.08
2018-05-04T13:25:07.399Z,23.11
2018-05-04T13:27:35.692Z,23.12
2018-05-04T13:30:07.168Z,23.06
2018-05-04T13:32:35.492Z,22.88
2018-05-04T13:35:07.583Z,22.95
2018-05-04T13:37:35.839Z,23.08
2018-05-04T13:40:07.609Z,22.76
2018-05-04T13:42:35.903Z,22.96
2018-05-04T13:45:07.071Z,23.20
2018-05-04T13:47:35.426Z,22.96
2018-05-04T13:50:07.359Z,22.95
2018-05-04T13:52:35.648Z,22.81
2018-05-04T13:55:07.785Z,22.89
2018-05-04T13:57:36.083Z,23.02
2018-05-04T14:00:07.982Z,23.27
2018-05-04T14:02:36.270Z,23.56
2018-05-04T14:05:06.412Z,23.70
2018-05-04T14:07:34.711Z,23.47
2018-05-04T14:10:10.091Z,23.29
2018-05-04T14:12:38.448Z,23.41
2018-05-04T14:15:07.280Z,23.31
2018-05-04T14:17:35.572Z,22.32
2018-05-04T14:20:06.322Z,22.14
2018-05-04T14:22:34.595Z,22.79
2018-05-04T14:25:06.504Z,21.83
2018-05-04T14:27:34.820Z,21.84
2018-05-04T14:30:09.826Z,22.53
2018-05-04T14:32:38.306Z,23.01
2018-05-04T14:35:06.597Z,22.90
2018-05-04T14:37:35.054Z,22.94
2018-05-04T14:40:07.200Z,23.12
2018-05-04T14:42:35.476Z,22.88
2018-05-04T14:45:06.334Z,22.90
2018-05-04T14:47:34.610Z,23.08
2018-05-04T14:50:06.099Z,22.96
2018-05-04T14:52:34.355Z,23.07
2018-05-04T14:55:10.807Z,22.87
2018-05-04T14:57:39.113Z,22.94
2018-05-04T15:00:07.400Z,23.17
2018-05-04T15:02:36.307Z,23.09
2018-05-04T15:05:06.375Z,22.96
2018-05-04T15:07:34.805Z,22.99
2018-05-04T15:10:06.185Z,23.20
2018-05-04T15:12:34.891Z,22.96
2018-05-04T15:15:06.708Z,22.94
2018-05-04T15:17:34.960Z,22.82
2018-05-04T15:20:08.880Z,23.01
2018-05-04T15:22:37.156Z,22.93
2018-05-04T15:25:06.779Z,22.94
2018-05-04T15:27:35.048Z,22.70
2018-05-04T15:30:09.099Z,22.60
2018-05-04T15:32:37.371Z,22.55
2018-05-04T15:35:06.718Z,22.45
2018-05-04T15:37:35.301Z,22.50
2018-05-04T15:40:06.704Z,22.31
2018-05-04T15:42:34.978Z,22.23
2018-05-04T15:45:07.120Z,22.15
2018-05-04T15:47:35.424Z,22.20
2018-05-04T15:50:13.071Z,22.14
2018-05-04T15:52:41.352Z,22.05
2018-05-04T15:55:09.804Z,22.11
2018-05-04T15:57:38.127Z,22.04
2018-05-04T16:00:06.388Z,22.15
2018-05-04T16:02:34.814Z,21.89
2018-05-04T16:05:06.247Z,21.91
2018-05-04T16:07:34.735Z,21.85
2018-05-04T16:10:09.984Z,21.85
2018-05-04T16:12:38.283Z,21.87
2018-05-04T16:15:06.555Z,21.87
2018-05-04T16:17:34.844Z,21.91
2018-05-04T16:20:09.834Z,21.93
2018-05-04T16:22:38.144Z,22.05
2018-05-04T16:25:06.420Z,21.78
2018-05-04T16:27:34.735Z,21.75
2018-05-04T16:30:09.969Z,21.56
2018-05-04T16:32:38.314Z,21.51
2018-05-04T16:35:06.670Z,21.47
2018-05-04T16:37:34.960Z,21.41
2018-05-04T16:40:06.302Z,21.27
2018-05-04T16:42:34.571Z,21.41
2018-05-04T16:45:05.949Z,21.39
2018-05-04T16:47:34.520Z,21.37
2018-05-04T16:50:06.512Z,21.40
2018-05-04T16:52:34.775Z,21.27
2018-05-04T16:55:08.174Z,21.26
2018-05-04T16:57:36.447Z,21.33
2018-05-04T17:00:06.722Z,21.34
2018-05-04T17:02:34.998Z,21.23
2018-05-04T17:05:07.176Z,21.22
2018-05-04T17:07:35.461Z,21.13
2018-05-04T17:10:06.523Z,21.05
2018-05-04T17:12:34.798Z,21.02
2018-05-04T17:15:06.298Z,20.97
2018-05-04T17:17:34.567Z,20.98
2018-05-04T17:20:06.011Z,20.83
2018-05-04T17:22:34.289Z,20.83
2018-05-04T17:25:06.224Z,20.75
2018-05-04T17:27:34.507Z,20.75
2018-05-04T17:30:06.618Z,20.76
2018-05-04T17:32:34.915Z,20.71
2018-05-04T17:35:05.577Z,20.56
2018-05-04T17:37:33.899Z,20.51
2018-05-04T17:40:05.615Z,20.49
2018-05-04T17:42:33.840Z,20.48
2018-05-04T17:45:07.228Z,20.31
2018-05-04T17:47:35.928Z,20.38
2018-05-04T17:50:07.119Z,20.27
2018-05-04T17:52:35.420Z,20.29
2018-05-04T17:55:06.603Z,20.29
2018-05-04T17:57:35.560Z,20.21
2018-05-04T18:00:05.479Z,20.14
2018-05-04T18:02:33.771Z,20.12
2018-05-04T18:05:05.348Z,20.02
2018-05-04T18:07:33.618Z,19.97
2018-05-04T18:10:08.728Z,19.91
2018-05-04T18:12:36.982Z,19.82
2018-05-04T18:15:05.757Z,19.82
2018-05-04T18:17:34.032Z,19.75
2018-05-04T18:20:05.358Z,19.76
2018-05-04T18:22:33.655Z,19.64
2018-05-04T18:25:04.941Z,19.52
2018-05-04T18:27:33.255Z,19.44
2018-05-04T18:30:08.165Z,19.45
2018-05-04T18:32:36.444Z,19.52
2018-05-04T18:35:05.565Z,19.47
2018-05-04T18:37:34.204Z,19.44
2018-05-04T18:40:05.626Z,19.37
2018-05-04T18:42:33.941Z,19.18
2018-05-04T18:45:05.816Z,19.27
2018-05-04T18:47:34.104Z,19.20
2018-05-04T18:50:05.496Z,19.13
2018-05-04T18:52:33.760Z,19.05
2018-05-04T18:55:05.058Z,19.00
2018-05-04T18:57:33.346Z,19.04
2018-05-04T19:00:08.173Z,18.86
2018-05-04T19:02:42.340Z,18.72
2018-05-04T19:05:10.629Z,18.69
2018-05-04T19:07:38.902Z,18.65
2018-05-04T19:10:07.339Z,18.52
2018-05-04T19:12:35.645Z,18.61
2018-05-04T19:15:05.665Z,18.50
2018-05-04T19:17:33.945Z,18.26
2018-05-04T19:20:05.726Z,18.37
2018-05-04T19:22:34.012Z,18.21
2018-05-04T19:25:09.745Z,18.19
2018-05-04T19:27:38.050Z,18.19
2018-05-04T19:30:06.656Z,18.12
2018-05-04T19:32:34.943Z,18.12
2018-05-04T19:35:06.956Z,18.07
2018-05-04T19:37:35.255Z,18.03
2018-05-04T19:40:07.115Z,18.03
2018-05-04T19:42:35.420Z,17.98
2018-05-04T19:45:07.405Z,17.89
2018-05-04T19:47:35.703Z,17.80
2018-05-04T19:50:05.784Z,17.72
2018-05-04T19:52:34.142Z,17.72
2018-05-04T19:55:09.107Z,17.65
2018-05-04T19:57:37.612Z,17.43
2018-05-04T20:00:05.982Z,17.15
2018-05-04T20:02:34.487Z,17.01
2018-05-04T20:05:05.709Z,16.79
2018-05-04T20:07:33.987Z,16.89
2018-05-04T20:10:06.484Z,16.80
2018-05-04T20:12:34.795Z,16.61
2018-05-04T20:15:07.252Z,16.49
2018-05-04T20:17:35.685Z,16.23
2018-05-04T20:20:07.674Z,16.34
2018-05-04T20:22:35.967Z,16.32
2018-05-04T20:25:05.920Z,16.33
2018-05-04T20:27:34.195Z,16.30
2018-05-04T20:30:09.323Z,16.21
2018-05-04T20:32:37.597Z,16.21
2018-05-04T20:35:05.900Z,16.17
2018-05-04T20:37:34.286Z,16.01
2018-05-04T20:40:06.404Z,15.89
2018-05-04T20:42:34.669Z,15.78
2018-05-04T20:45:06.697Z,15.80
2018-05-04T20:47:34.960Z,15.76
2018-05-04T20:50:07.027Z,15.60
2018-05-04T20:52:35.324Z,15.70
2018-05-04T20:55:07.364Z,15.55
2018-05-04T20:57:35.675Z,15.41
2018-05-04T21:00:07.625Z,15.34
2018-05-04T21:02:35.920Z,15.48
2018-05-04T21:05:07.137Z,15.38
2018-05-04T21:07:35.448Z,15.39
2018-05-04T21:10:07.482Z,15.36
2018-05-04T21:12:35.778Z,15.33
2018-05-04T21:15:05.999Z,15.13
2018-05-04T21:17:34.276Z,15.19
2018-05-04T21:20:05.735Z,15.19
2018-05-04T21:22:34.032Z,14.99
2018-05-04T21:25:05.753Z,14.99
2018-05-04T21:27:34.040Z,14.93
2018-05-04T21:30:05.943Z,14.86
2018-05-04T21:32:34.655Z,14.83
2018-05-04T21:35:06.361Z,14.78
2018-05-04T21:37:34.640Z,14.28
2018-05-04T21:40:05.838Z,14.33
2018-05-04T21:42:34.122Z,14.29
2018-05-04T21:45:05.530Z,14.36
2018-05-04T21:47:33.816Z,14.40
2018-05-04T21:50:05.789Z,14.34
2018-05-04T21:52:34.131Z,14.48
2018-05-04T21:55:05.576Z,14.59
2018-05-04T21:57:33.867Z,14.69
2018-05-04T22:00:09.176Z,14.82
2018-05-04T22:02:37.523Z,14.82
2018-05-04T22:05:06.994Z,14.88
2018-05-04T22:07:35.403Z,14.64
2018-05-04T22:10:07.311Z,14.32
2018-05-04T22:12:35.678Z,14.25
2018-05-04T22:15:07.642Z,14.30
2018-05-04T22:17:35.908Z,14.49
2018-05-04T22:20:08.044Z,14.55
2018-05-04T22:22:36.335Z,14.52
2018-05-04T22:25:06.688Z,14.59
2018-05-04T22:27:35.336Z,14.64
2018-05-04T22:30:07.302Z,14.49
2018-05-04T22:32:35.584Z,14.46
2018-05-04T22:35:07.853Z,14.46
2018-05-04T22:37:36.127Z,14.37
2018-05-04T22:40:07.368Z,14.38
2018-05-04T22:42:35.629Z,14.31
2018-05-04T22:45:06.927Z,14.17
2018-05-04T22:47:35.206Z,14.14
2018-05-04T22:50:06.810Z,14.04
2018-05-04T22:52:35.064Z,14.07
2018-05-04T22:55:06.469Z,14.06
2018-05-04T22:57:34.739Z,13.94
2018-05-04T23:00:06.099Z,13.85
2018-05-04T23:02:34.378Z,13.72
2018-05-04T23:05:05.662Z,13.68
2018-05-04T23:07:33.951Z,13.57
2018-05-04T23:10:09.877Z,13.50
2018-05-04T23:12:38.220Z,13.39
2018-05-04T23:15:06.525Z,13.06
2018-05-04T23:17:34.800Z,13.10
2018-05-04T23:20:06.290Z,13.11
2018-05-04T23:22:34.579Z,12.99
2018-05-04T23:25:06.545Z,12.89
2018-05-04T23:27:34.832Z,12.78
2018-05-04T23:30:06.214Z,12.73
2018-05-04T23:32:34.498Z,12.51
2018-05-04T23:35:07.344Z,12.60
2018-05-04T23:37:35.630Z,12.56
2018-05-04T23:40:06.923Z,12.48
2018-05-04T23:42:35.209Z,12.47
2018-05-04T23:45:07.895Z,12.41
2018-05-04T23:47:36.204Z,12.41
2018-05-04T23:50:09.080Z,12.34
2018-05-04T23:52:37.547Z,12.34
2018-05-04T23:55:06.431Z,12.36
2018-05-04T23:57:34.711Z,12.30
